Time;durP1;ratioP1;P1;durP2;ratioP2;P2;SDS_P1;SDS_P2;PMS_P1;PMS_P2;Temp;Humidity;BMP_temperature;BMP_pressure;BME280_temperature;BME280_humidity;BME280_pressure;Samples;Min_cycle;Max_cycle;Signal;HPM_P1;HPM_P2
2023/06/11 00:01:08;;;;;;;2.05;1.10;;;20.30;39.80;;;;;;5055997;28;20166;-82
2023/06/11 00:03:35;;;;;;;1.42;1.33;;;20.30;39.80;;;;;;5055551;28;20576;-82
2023/06/11 00:06:01;;;;;;;1.25;1.15;;;20.30;39.80;;;;;;5054310;28;20198;-80
2023/06/11 00:08:26;;;;;;;1.30;1.20;;;20.20;39.80;;;;;;5054476;28;20150;-79
2023/06/11 00:10:52;;;;;;;1.38;1.27;;;20.30;39.80;;;;;;5055607;28;20150;-78
2023/06/11 00:13:18;;;;;;;1.40;1.30;;;20.20;39.90;;;;;;5037428;28;20651;-81
2023/06/11 00:15:43;;;;;;;1.40;1.30;;;20.20;39.90;;;;;;5055668;28;20251;-80
2023/06/11 00:18:10;;;;;;;1.40;1.30;;;20.30;39.90;;;;;;5055213;28;20185;-79
2023/06/11 00:20:40;;;;;;;1.60;1.40;;;20.20;39.80;;;;;;5054255;28;20237;-81
2023/06/11 00:23:06;;;;;;;1.42;1.33;;;20.20;39.80;;;;;;5055556;28;20526;-83
2023/06/11 00:25:32;;;;;;;1.50;1.40;;;20.20;39.80;;;;;;5055299;28;20284;-80
2023/06/11 00:27:58;;;;;;;1.30;1.20;;;20.20;39.80;;;;;;5055305;28;20249;-82
2023/06/11 00:30:24;;;;;;;1.40;1.30;;;20.20;39.90;;;;;;5055765;28;20189;-80
2023/06/11 00:32:49;;;;;;;1.40;1.30;;;20.20;39.80;;;;;;5053830;28;20177;-82
2023/06/11 00:35:16;;;;;;;1.42;1.33;;;20.20;39.80;;;;;;5055169;28;20155;-82
2023/06/11 00:37:42;;;;;;;1.27;1.17;;;20.20;39.90;;;;;;5054953;28;20300;-79
2023/06/11 00:40:08;;;;;;;1.30;1.20;;;20.20;39.90;;;;;;5053940;28;20192;-82
2023/06/11 00:42:34;;;;;;;1.40;1.30;;;20.20;39.90;;;;;;5053856;28;20150;-83
2023/06/11 00:45:07;;;;;;;1.23;1.13;;;20.20;39.90;;;;;;5056853;28;20213;-80
2023/06/11 00:47:33;;;;;;;1.58;1.38;;;20.20;39.90;;;;;;5057677;28;20201;-83
2023/06/11 00:50:00;;;;;;;1.40;1.30;;;20.20;39.90;;;;;;5057761;28;20249;-79
2023/06/11 00:52:25;;;;;;;1.30;1.20;;;20.20;39.90;;;;;;5059023;28;20166;-84
2023/06/11 00:54:52;;;;;;;2.20;1.30;;;20.20;39.90;;;;;;5058465;28;20166;-83
2023/06/11 00:57:22;;;;;;;1.15;1.05;;;20.20;39.90;;;;;;5058636;28;20166;-79
2023/06/11 00:59:50;;;;;;;1.30;1.20;;;20.20;40.00;;;;;;5058019;28;20249;-82
2023/06/11 01:02:38;;;;;;;1.30;1.20;;;20.20;40.00;;;;;;5058457;28;20241;-79
2023/06/11 01:05:04;;;;;;;1.42;1.27;;;20.10;39.90;;;;;;5057041;28;20166;-83
2023/06/11 01:07:35;;;;;;;1.38;1.27;;;20.10;39.80;;;;;;5040315;28;20213;-83
2023/06/11 01:10:01;;;;;;;1.48;1.35;;;20.20;39.80;;;;;;5058945;28;20147;-78
2023/06/11 01:12:28;;;;;;;1.30;1.20;;;20.10;39.80;;;;;;5041201;28;20154;-83
2023/06/11 01:14:54;;;;;;;1.50;1.40;;;20.20;39.80;;;;;;5058236;28;20169;-80
2023/06/11 01:17:25;;;;;;;1.40;1.30;;;20.10;39.80;;;;;;5056941;28;20181;-80
2023/06/11 01:20:09;;;;;;;1.50;1.40;;;20.20;39.80;;;;;;5057044;28;20161;-80
2023/06/11 01:23:09;;;;;;;1.45;1.35;;;20.20;39.80;;;;;;5058749;28;20162;-81
2023/06/11 01:25:45;;;;;;;1.30;1.20;;;20.20;39.80;;;;;;5058075;28;20210;-80
2023/06/11 01:28:16;;;;;;;1.30;1.20;;;20.20;39.80;;;;;;5057705;28;20154;-81
2023/06/11 01:30:45;;;;;;;1.23;1.13;;;20.20;39.70;;;;;;5058068;28;20504;-81
2023/06/11 01:33:13;;;;;;;1.42;1.33;;;20.20;39.70;;;;;;5058212;28;20241;-79
2023/06/11 01:35:40;;;;;;;1.17;1.08;;;20.10;39.70;;;;;;5056431;28;20254;-79
2023/06/11 01:38:08;;;;;;;1.60;1.13;;;20.20;39.70;;;;;;5057840;28;20238;-80
2023/06/11 01:40:34;;;;;;;1.35;1.25;;;20.20;39.70;;;;;;5057681;28;20521;-80
2023/06/11 01:43:00;;;;;;;1.20;1.10;;;20.20;39.80;;;;;;5056471;28;20154;-82
2023/06/11 01:45:26;;;;;;;1.20;1.10;;;20.20;39.70;;;;;;5056444;28;20627;-81
2023/06/11 01:47:54;;;;;;;1.33;1.23;;;20.10;39.70;;;;;;5056750;28;20189;-81
2023/06/11 01:50:20;;;;;;;1.00;1.00;;;20.10;39.70;;;;;;5058058;28;20279;-80
2023/06/11 01:52:46;;;;;;;1.10;1.10;;;20.10;39.70;;;;;;5056866;28;20290;-81
2023/06/11 01:55:11;;;;;;;1.20;1.10;;;20.10;39.80;;;;;;5057687;28;20181;-81
2023/06/11 01:57:38;;;;;;;1.30;1.20;;;20.10;39.80;;;;;;5056727;28;20523;-83
2023/06/11 02:00:06;;;;;;;1.20;1.10;;;20.10;39.80;;;;;;5057826;28;20237;-81
2023/06/11 02:02:31;;;;;;;1.25;1.15;;;20.10;39.80;;;;;;5057312;28;20158;-81
2023/06/11 02:04:58;;;;;;;1.20;1.10;;;20.10;39.80;;;;;;5039692;28;20177;-82
2023/06/11 02:07:24;;;;;;;1.10;1.00;;;20.10;39.80;;;;;;5057784;28;20640;-81
2023/06/11 02:09:49;;;;;;;1.20;1.10;;;20.10;39.80;;;;;;5057841;28;20162;-79
2023/06/11 02:12:15;;;;;;;1.20;1.10;;;20.10;39.80;;;;;;5055831;28;20166;-80
2023/06/11 02:14:41;;;;;;;1.27;1.17;;;20.10;39.90;;;;;;5055711;28;20693;-79
2023/06/11 02:17:06;;;;;;;1.30;1.13;;;20.10;39.90;;;;;;5057380;28;20162;-81
2023/06/11 02:19:32;;;;;;;2.03;1.20;;;20.00;39.80;;;;;;5056980;28;20233;-79
2023/06/11 02:21:59;;;;;;;1.20;1.10;;;20.10;39.90;;;;;;5056990;28;20199;-82
2023/06/11 02:24:24;;;;;;;1.30;1.15;;;20.10;39.80;;;;;;5056838;28;20154;-81
2023/06/11 02:26:50;;;;;;;1.25;1.15;;;20.10;39.90;;;;;;5056387;28;20530;-78
2023/06/11 02:29:18;;;;;;;1.40;1.30;;;20.10;39.90;;;;;;5055229;28;20227;-79
2023/06/11 02:31:43;;;;;;;1.15;1.00;;;20.10;39.90;;;;;;5056405;28;20155;-81
2023/06/11 02:34:09;;;;;;;1.27;1.17;;;20.10;39.80;;;;;;5055995;28;20164;-80
2023/06/11 02:36:36;;;;;;;1.35;1.20;;;20.10;39.90;;;;;;5055983;28;20154;-78
2023/06/11 02:39:02;;;;;;;1.10;1.00;;;20.10;39.80;;;;;;5056442;28;20650;-81
2023/06/11 02:41:28;;;;;;;1.42;1.20;;;20.00;40.00;;;;;;5056003;28;20162;-82
2023/06/11 02:43:54;;;;;;;1.20;1.10;;;20.10;39.90;;;;;;5055836;28;20601;-77
2023/06/11 02:46:19;;;;;;;1.25;1.15;;;20.10;39.90;;;;;;5055426;28;20225;-81
2023/06/11 02:48:45;;;;;;;1.13;1.10;;;20.00;39.90;;;;;;5055055;28;20161;-80
2023/06/11 02:51:10;;;;;;;1.20;1.10;;;20.00;39.90;;;;;;5055215;28;20497;-80
2023/06/11 02:53:36;;;;;;;1.35;1.20;;;20.00;39.90;;;;;;5054855;28;20516;-81
2023/06/11 02:56:02;;;;;;;1.40;1.30;;;20.00;40.00;;;;;;5054809;28;20521;-79
2023/06/11 02:58:29;;;;;;;1.20;1.10;;;20.10;40.00;;;;;;5054636;28;20154;-82
2023/06/11 03:00:55;;;;;;;1.00;1.00;;;20.00;40.00;;;;;;5054488;28;20261;-78
2023/06/11 03:03:21;;;;;;;1.20;1.10;;;20.00;39.90;;;;;;5054491;28;20154;-80
2023/06/11 03:05:47;;;;;;;1.50;1.40;;;20.10;40.00;;;;;;5053308;28;20216;-80
2023/06/11 03:08:13;;;;;;;1.20;1.10;;;20.10;40.00;;;;;;5052196;28;20631;-84
2023/06/11 03:10:39;;;;;;;1.17;1.08;;;20.10;40.00;;;;;;5054393;28;20165;-82
2023/06/11 03:13:05;;;;;;;1.02;1.00;;;20.10;40.00;;;;;;5054435;28;20507;-79
2023/06/11 03:15:30;;;;;;;1.20;1.10;;;20.10;39.90;;;;;;5054046;28;20519;-83
2023/06/11 03:17:57;;;;;;;1.30;1.20;;;20.10;39.90;;;;;;5053770;28;20155;-82
2023/06/11 03:20:22;;;;;;;1.20;1.10;;;20.10;40.00;;;;;;5052520;28;20511;-83
2023/06/11 03:22:48;;;;;;;1.25;1.15;;;20.00;39.90;;;;;;5053935;28;20169;-79
2023/06/11 03:25:13;;;;;;;1.20;1.10;;;20.10;39.90;;;;;;5053576;28;20154;-80
2023/06/11 03:27:39;;;;;;;1.20;1.10;;;20.10;39.90;;;;;;5052184;28;20198;-80
2023/06/11 03:30:06;;;;;;;1.20;1.10;;;20.10;39.90;;;;;;5053885;28;20163;-82
2023/06/11 03:32:31;;;;;;;1.30;1.20;;;20.20;39.90;;;;;;5052287;28;20171;-81
2023/06/11 03:34:57;;;;;;;1.05;1.05;;;20.10;39.80;;;;;;5053463;28;20229;-78
2023/06/11 03:37:23;;;;;;;1.30;1.20;;;20.10;39.80;;;;;;5053796;28;20527;-80
2023/06/11 03:39:48;;;;;;;1.23;1.17;;;20.20;39.80;;;;;;5053692;28;20169;-82
2023/06/11 03:42:14;;;;;;;0.98;0.98;;;20.20;39.80;;;;;;5053662;28;20539;-81
2023/06/11 03:44:40;;;;;;;1.70;1.30;;;20.20;39.70;;;;;;5053110;28;20161;-81
2023/06/11 03:47:06;;;;;;;1.83;1.20;;;20.20;39.70;;;;;;5051965;28;20648;-81
2023/06/11 03:49:31;;;;;;;0.90;0.90;;;20.30;39.80;;;;;;5052190;28;20173;-83
2023/06/11 03:51:57;;;;;;;1.20;1.10;;;20.20;39.70;;;;;;5053505;28;20182;-80
2023/06/11 03:54:23;;;;;;;1.25;1.15;;;20.20;39.90;;;;;;5052494;28;20557;-83
2023/06/11 03:56:48;;;;;;;1.23;1.13;;;20.20;39.80;;;;;;5053191;28;20181;-83
2023/06/11 03:59:14;;;;;;;1.00;1.00;;;20.20;39.70;;;;;;5051894;28;20237;-83
2023/06/11 04:01:40;;;;;;;1.50;1.25;;;20.20;39.70;;;;;;5052416;28;20517;-80
2023/06/11 04:04:06;;;;;;;0.93;0.93;;;20.30;39.80;;;;;;5053165;28;20154;-78
2023/06/11 04:06:39;;;;;;;1.10;1.00;;;20.20;39.70;;;;;;5053344;28;20773;-81
2023/06/11 04:09:06;;;;;;;1.30;1.20;;;20.30;39.80;;;;;;5053184;28;20247;-80
2023/06/11 04:11:31;;;;;;;1.40;1.27;;;20.30;39.80;;;;;;5051829;28;20150;-79
2023/06/11 04:13:57;;;;;;;1.13;1.02;;;20.30;39.60;;;;;;5053081;28;20191;-82
2023/06/11 04:16:23;;;;;;;1.30;1.02;;;20.40;39.70;;;;;;5053273;28;20165;-81
2023/06/11 04:18:48;;;;;;;1.38;1.27;;;20.30;39.70;;;;;;5053578;28;20161;-83
2023/06/11 04:21:14;;;;;;;1.20;1.10;;;20.30;39.60;;;;;;5057129;28;20182;-82
2023/06/11 04:23:40;;;;;;;1.10;1.00;;;20.30;39.70;;;;;;5055848;28;20161;-81
2023/06/11 04:26:07;;;;;;;1.20;1.10;;;20.30;39.50;;;;;;5055568;28;20652;-82
2023/06/11 04:28:36;;;;;;;1.40;1.30;;;20.30;39.60;;;;;;5056041;28;20165;-82
2023/06/11 04:31:04;;;;;;;1.20;1.10;;;20.40;39.60;;;;;;5057141;28;20245;-81
2023/06/11 04:33:32;;;;;;;1.33;1.23;;;20.30;39.70;;;;;;5055657;28;20561;-80
2023/06/11 04:36:00;;;;;;;1.25;1.15;;;20.40;39.70;;;;;;5057105;28;20173;-80
2023/06/11 04:38:28;;;;;;;1.30;1.20;;;20.40;39.60;;;;;;5056702;28;20173;-81
2023/06/11 04:40:55;;;;;;;1.40;1.30;;;20.40;40.30;;;;;;5055552;28;20158;-82
2023/06/11 04:43:23;;;;;;;1.25;1.10;;;20.40;39.60;;;;;;5056824;28;20228;-79
2023/06/11 04:45:55;;;;;;;1.30;1.20;;;20.40;39.60;;;;;;5056320;28;20216;-82
2023/06/11 04:48:23;;;;;;;1.20;1.10;;;20.50;39.50;;;;;;5055581;28;20200;-83
2023/06/11 04:50:50;;;;;;;1.10;1.00;;;20.40;39.40;;;;;;5056825;28;20212;-83
2023/06/11 04:53:21;;;;;;;1.17;1.10;;;20.40;39.50;;;;;;5056413;28;20198;-80
2023/06/11 04:55:49;;;;;;;1.02;1.00;;;20.40;39.50;;;;;;5055320;28;20257;-82
2023/06/11 04:58:15;;;;;;;1.20;1.10;;;20.50;39.40;;;;;;5038468;28;20155;-80
2023/06/11 05:00:42;;;;;;;1.15;1.10;;;20.40;39.40;;;;;;5055216;28;20173;-82
2023/06/11 05:03:08;;;;;;;1.30;1.20;;;20.50;39.50;;;;;;5055166;28;20154;-83
2023/06/11 05:05:34;;;;;;;0.90;0.90;;;20.50;39.40;;;;;;5056151;28;20165;-82
2023/06/11 05:08:00;;;;;;;1.20;1.10;;;20.50;39.40;;;;;;5056555;28;20200;-83
2023/06/11 05:10:25;;;;;;;1.30;1.20;;;20.50;39.50;;;;;;5056165;28;20177;-83
2023/06/11 05:12:51;;;;;;;1.08;1.08;;;20.50;39.40;;;;;;5056018;28;20150;-82
2023/06/11 05:15:17;;;;;;;1.20;1.10;;;20.60;39.50;;;;;;5056081;28;20624;-82
2023/06/11 05:17:43;;;;;;;1.20;1.10;;;20.50;39.40;;;;;;5054771;28;20215;-81
2023/06/11 05:20:09;;;;;;;1.23;1.13;;;20.60;39.40;;;;;;5054699;28;20172;-79
2023/06/11 05:22:35;;;;;;;1.48;1.38;;;20.60;39.50;;;;;;5055859;28;20154;-80
2023/06/11 05:25:00;;;;;;;2.20;1.00;;;20.60;39.50;;;;;;5054600;28;20150;-79
2023/06/11 05:27:29;;;;;;;1.20;1.10;;;20.60;39.60;;;;;;5055771;28;20193;-80
2023/06/11 05:29:56;;;;;;;1.20;1.13;;;20.60;39.80;;;;;;5054950;28;20204;-82
2023/06/11 05:32:21;;;;;;;1.42;1.33;;;20.70;39.90;;;;;;5054574;28;20158;-82
2023/06/11 05:34:49;;;;;;;1.20;1.10;;;20.60;39.80;;;;;;5055744;28;20158;-83
2023/06/11 05:37:15;;;;;;;1.45;1.35;;;20.60;39.90;;;;;;5055608;28;20154;-81
2023/06/11 05:39:41;;;;;;;1.20;1.10;;;20.60;40.10;;;;;;5055444;28;20154;-81
2023/06/11 05:42:07;;;;;;;1.27;1.17;;;20.60;40.10;;;;;;5054329;28;20169;-83
2023/06/11 05:44:33;;;;;;;1.33;1.23;;;20.60;40.10;;;;;;5055318;28;20178;-79
2023/06/11 05:46:58;;;;;;;1.48;1.20;;;20.50;40.10;;;;;;5055435;28;20645;-83
2023/06/11 05:49:24;;;;;;;2.45;1.58;;;20.50;41.00;;;;;;5055405;28;20158;-80
2023/06/11 05:51:50;;;;;;;1.23;1.10;;;20.50;41.50;;;;;;5055202;28;20663;-82
2023/06/11 05:54:16;;;;;;;1.30;1.20;;;20.50;41.00;;;;;;5055421;28;20241;-78
2023/06/11 05:56:41;;;;;;;1.48;1.30;;;20.50;40.70;;;;;;5037303;28;20709;-80
2023/06/11 05:59:07;;;;;;;1.90;1.15;;;20.40;41.90;;;;;;5037246;28;20201;-81
2023/06/11 06:01:34;;;;;;;2.50;1.67;;;20.40;41.60;;;;;;5037272;28;20193;-83
2023/06/11 06:04:00;;;;;;;1.50;1.40;;;20.40;42.10;;;;;;5054351;28;20165;-80
2023/06/11 06:06:27;;;;;;;1.55;1.00;;;20.40;42.70;;;;;;5053755;28;20193;-81
2023/06/11 06:08:52;;;;;;;0.98;0.98;;;20.40;41.20;;;;;;5037075;28;20171;-82
2023/06/11 06:11:18;;;;;;;1.17;1.08;;;20.30;41.60;;;;;;5055109;28;20207;-80
2023/06/11 06:13:44;;;;;;;1.30;1.20;;;20.30;41.70;;;;;;5037071;28;20150;-83
2023/06/11 06:16:09;;;;;;;1.40;1.30;;;20.30;42.00;;;;;;5020424;28;20169;-80
2023/06/11 06:18:37;;;;;;;2.67;1.45;;;20.40;42.00;;;;;;5053502;28;20194;-82
2023/06/11 06:21:02;;;;;;;1.05;0.98;;;20.50;43.00;;;;;;5036445;28;20219;-83
2023/06/11 06:23:28;;;;;;;1.33;1.10;;;20.40;42.60;;;;;;5036074;28;20260;-80
2023/06/11 06:25:54;;;;;;;1.50;1.40;;;20.30;42.00;;;;;;5052311;28;20190;-82
2023/06/11 06:28:19;;;;;;;1.48;1.20;;;20.30;42.30;;;;;;5053466;28;20520;-84
2023/06/11 06:30:45;;;;;;;1.40;1.30;;;20.20;43.60;;;;;;5052323;28;20158;-80
2023/06/11 06:33:11;;;;;;;1.73;1.27;;;20.30;42.60;;;;;;5035934;28;20154;-80
2023/06/11 06:35:39;;;;;;;1.38;1.20;;;20.30;42.40;;;;;;5036421;28;20162;-80
2023/06/11 06:38:05;;;;;;;2.20;1.50;;;20.30;42.00;;;;;;5036504;28;20184;-83
2023/06/11 06:40:30;;;;;;;2.05;1.20;;;20.40;43.00;;;;;;5052819;28;20174;-82
2023/06/11 06:42:56;;;;;;;2.03;1.30;;;20.40;43.00;;;;;;5053754;28;20224;-82
2023/06/11 06:45:22;;;;;;;2.15;1.20;;;20.40;43.30;;;;;;5052367;28;20220;-81
2023/06/11 06:47:47;;;;;;;2.35;1.27;;;20.40;43.00;;;;;;5053962;28;20194;-81
2023/06/11 06:50:13;;;;;;;1.90;0.93;;;20.50;43.40;;;;;;5052321;28;20228;-80
2023/06/11 06:52:38;;;;;;;1.27;1.17;;;20.50;43.60;;;;;;5035490;28;20161;-83
2023/06/11 06:55:05;;;;;;;1.30;1.20;;;20.50;43.10;;;;;;5053793;28;20188;-81
2023/06/11 06:57:30;;;;;;;1.38;1.27;;;20.40;43.30;;;;;;5035827;28;20517;-82
2023/06/11 06:59:56;;;;;;;1.40;1.30;;;20.50;43.40;;;;;;5051639;28;20162;-83
2023/06/11 07:02:22;;;;;;;1.10;1.00;;;20.50;43.30;;;;;;5051254;28;20170;-83
2023/06/11 07:04:48;;;;;;;2.20;1.25;;;20.50;43.30;;;;;;5036885;28;20258;-80
2023/06/11 07:07:14;;;;;;;3.78;1.10;;;20.50;43.80;;;;;;5054227;28;20186;-83
2023/06/11 07:09:40;;;;;;;1.40;1.30;;;20.40;44.10;;;;;;5034882;28;20256;-82
2023/06/11 07:12:06;;;;;;;2.67;1.20;;;20.40;43.90;;;;;;5018548;28;20201;-81
2023/06/11 07:14:32;;;;;;;1.30;1.20;;;20.50;44.00;;;;;;5018675;28;20165;-81
2023/06/11 07:16:57;;;;;;;0.90;0.90;;;20.50;44.20;;;;;;5017824;28;20176;-82
2023/06/11 07:19:23;;;;;;;2.45;1.23;;;20.50;43.60;;;;;;5052390;28;20158;-82
2023/06/11 07:21:49;;;;;;;1.33;1.23;;;20.50;43.60;;;;;;5052475;28;20522;-81
2023/06/11 07:24:14;;;;;;;2.35;1.23;;;20.50;43.70;;;;;;5051813;28;20196;-80
2023/06/11 07:26:42;;;;;;;1.30;1.20;;;20.40;43.70;;;;;;5052696;28;20233;-84
2023/06/11 07:29:07;;;;;;;1.23;1.13;;;20.40;44.40;;;;;;5052818;28;20234;-82
2023/06/11 07:31:33;;;;;;;1.20;1.10;;;20.40;43.70;;;;;;5036240;28;20616;-83
2023/06/11 07:33:59;;;;;;;2.13;1.10;;;20.40;43.60;;;;;;5054579;28;20181;-81
2023/06/11 07:36:24;;;;;;;1.90;1.40;;;20.40;43.70;;;;;;5035880;28;20248;-81
2023/06/11 07:38:50;;;;;;;1.48;1.38;;;20.40;43.70;;;;;;5035734;28;20154;-82
2023/06/11 07:41:16;;;;;;;1.35;1.25;;;20.30;43.90;;;;;;5053188;28;20240;-82
2023/06/11 07:43:41;;;;;;;1.30;1.20;;;20.30;43.90;;;;;;5035720;28;20166;-82
2023/06/11 07:46:07;;;;;;;1.63;1.17;;;20.30;44.00;;;;;;5051845;28;20715;-81
2023/06/11 07:48:33;;;;;;;1.30;1.20;;;20.30;44.00;;;;;;5052992;28;20158;-81
2023/06/11 07:50:59;;;;;;;1.35;1.23;;;20.40;43.70;;;;;;5051643;28;20154;-82
2023/06/11 07:53:24;;;;;;;1.40;1.10;;;20.40;43.50;;;;;;5051285;28;20154;-82
2023/06/11 07:55:56;;;;;;;1.30;1.20;;;20.40;43.40;;;;;;5052301;28;20228;-80
2023/06/11 07:58:22;;;;;;;2.55;1.00;;;20.40;43.30;;;;;;5052207;28;20162;-84
2023/06/11 08:00:48;;;;;;;3.20;1.33;;;20.40;43.40;;;;;;5050404;28;20162;-81
2023/06/11 08:03:14;;;;;;;2.22;1.30;;;20.30;43.40;;;;;;5034364;28;20173;-84
2023/06/11 08:05:40;;;;;;;1.35;1.20;;;20.30;43.70;;;;;;5033714;28;20165;-82
2023/06/11 08:08:07;;;;;;;1.13;1.02;;;20.30;43.70;;;;;;5051700;28;20238;-83
2023/06/11 08:10:33;;;;;;;1.25;1.10;;;20.30;43.70;;;;;;5050339;28;20265;-82
2023/06/11 08:12:59;;;;;;;1.42;1.33;;;20.30;43.70;;;;;;5052117;28;20154;-83
2023/06/11 08:15:24;;;;;;;1.33;1.20;;;20.30;43.70;;;;;;5051864;28;20154;-82
2023/06/11 08:17:50;;;;;;;1.30;1.20;;;20.30;43.70;;;;;;5050315;28;20173;-83
2023/06/11 08:20:16;;;;;;;1.02;1.02;;;20.30;43.60;;;;;;5050321;28;20178;-81
2023/06/11 08:22:42;;;;;;;1.17;1.08;;;20.30;43.50;;;;;;5016856;28;20214;-82
2023/06/11 08:25:09;;;;;;;1.25;1.15;;;20.30;43.20;;;;;;5033409;28;20162;-81
2023/06/11 08:27:35;;;;;;;1.23;1.13;;;20.50;43.20;;;;;;5051208;28;20212;-82
2023/06/11 08:30:02;;;;;;;1.20;1.10;;;20.50;43.00;;;;;;5033707;28;20628;-82
2023/06/11 08:32:27;;;;;;;1.77;1.30;;;20.50;42.90;;;;;;5033326;28;20162;-81
2023/06/11 08:34:53;;;;;;;1.20;1.10;;;20.40;42.80;;;;;;5051567;28;20155;-82
2023/06/11 08:37:19;;;;;;;3.17;1.38;;;20.50;42.30;;;;;;5051746;28;20163;-83
2023/06/11 08:39:44;;;;;;;1.80;1.27;;;20.50;42.00;;;;;;5017219;28;20264;-82
2023/06/11 08:42:10;;;;;;;1.15;1.00;;;20.50;42.10;;;;;;5049782;28;20181;-82
2023/06/11 08:44:36;;;;;;;1.48;1.20;;;20.60;41.40;;;;;;5050916;28;20241;-82
2023/06/11 08:47:02;;;;;;;1.65;1.00;;;20.50;42.30;;;;;;5049722;28;20639;-83
2023/06/11 08:49:28;;;;;;;1.38;1.27;;;20.40;42.10;;;;;;5050245;28;20177;-83
2023/06/11 08:51:54;;;;;;;1.67;1.25;;;20.40;42.20;;;;;;5033456;28;20235;-82
2023/06/11 08:54:20;;;;;;;1.13;1.02;;;20.40;42.10;;;;;;5051321;28;20677;-83
2023/06/11 08:56:45;;;;;;;2.72;1.15;;;20.40;42.10;;;;;;5032984;28;20161;-83
2023/06/11 08:59:11;;;;;;;1.33;1.10;;;20.40;41.80;;;;;;5050841;28;20158;-82
2023/06/11 09:01:38;;;;;;;2.53;1.27;;;20.50;41.60;;;;;;5033188;28;20170;-82
2023/06/11 09:04:05;;;;;;;1.13;1.00;;;20.50;41.90;;;;;;5034175;28;20601;-82
2023/06/11 09:06:33;;;;;;;1.30;1.20;;;20.40;41.80;;;;;;5017641;28;20206;-83
2023/06/11 09:09:05;;;;;;;1.40;1.30;;;20.40;41.80;;;;;;5020194;28;20173;-82
2023/06/11 09:11:33;;;;;;;2.17;1.20;;;20.50;41.80;;;;;;5036652;28;20159;-81
2023/06/11 09:13:59;;;;;;;1.50;1.35;;;20.40;41.70;;;;;;5053965;28;20155;-83
2023/06/11 09:16:25;;;;;;;2.65;1.50;;;20.50;41.10;;;;;;5036225;28;20182;-82
2023/06/11 09:18:51;;;;;;;1.95;1.25;;;20.60;41.00;;;;;;5054007;28;20170;-83
2023/06/11 09:21:16;;;;;;;1.92;1.20;;;20.70;41.30;;;;;;5057561;28;20184;-83
2023/06/11 09:23:45;;;;;;;1.30;1.20;;;20.60;40.90;;;;;;5055370;28;20532;-82
2023/06/11 09:26:15;;;;;;;1.58;1.20;;;20.60;41.10;;;;;;5057586;28;20261;-82
2023/06/11 09:28:41;;;;;;;2.97;1.30;;;20.60;40.80;;;;;;5039262;28;20170;-82
2023/06/11 09:31:06;;;;;;;1.75;1.15;;;20.60;40.80;;;;;;5055705;28;20217;-82
2023/06/11 09:33:32;;;;;;;1.25;1.15;;;20.60;41.10;;;;;;5056250;28;20177;-82
2023/06/11 09:35:58;;;;;;;1.27;1.10;;;20.50;40.90;;;;;;5055711;28;20455;-81
2023/06/11 09:38:24;;;;;;;1.63;1.20;;;20.60;40.30;;;;;;5056307;28;20161;-82
2023/06/11 09:40:51;;;;;;;1.88;1.58;;;20.60;40.20;;;;;;5053272;28;20589;-82
2023/06/11 09:43:18;;;;;;;2.05;1.35;;;20.70;40.10;;;;;;5039036;28;20146;-83
2023/06/11 09:45:44;;;;;;;2.10;1.35;;;20.70;40.50;;;;;;5038553;28;20225;-82
2023/06/11 09:48:12;;;;;;;2.53;1.38;;;20.60;40.30;;;;;;5038713;28;20311;-81
2023/06/11 09:50:39;;;;;;;1.30;1.20;;;20.70;40.50;;;;;;5053830;28;20162;-82
2023/06/11 09:53:05;;;;;;;1.42;1.33;;;20.60;40.60;;;;;;5036044;28;20162;-84
2023/06/11 09:55:34;;;;;;;1.38;1.15;;;20.50;40.50;;;;;;5036425;28;20229;-80
2023/06/11 09:58:01;;;;;;;1.35;1.25;;;20.60;40.60;;;;;;5038465;28;20257;-83
2023/06/11 10:00:26;;;;;;;2.00;1.20;;;20.60;40.50;;;;;;5022284;28;20170;-82
2023/06/11 10:02:52;;;;;;;2.97;1.20;;;20.50;40.50;;;;;;5037282;28;20177;-80
2023/06/11 10:05:18;;;;;;;2.30;1.10;;;20.50;40.60;;;;;;5054679;28;20176;-82
2023/06/11 10:07:47;;;;;;;1.60;1.10;;;20.60;40.70;;;;;;5053850;28;20209;-83
2023/06/11 10:10:15;;;;;;;1.38;1.10;;;20.60;40.60;;;;;;5053537;28;20154;-81
2023/06/11 10:12:40;;;;;;;1.67;1.20;;;20.60;40.60;;;;;;5036275;28;20525;-81
2023/06/11 10:15:10;;;;;;;1.30;1.20;;;20.60;40.60;;;;;;5052631;28;20612;-81
2023/06/11 10:17:35;;;;;;;2.80;1.17;;;20.50;40.60;;;;;;5052733;28;20226;-82
2023/06/11 10:20:01;;;;;;;1.45;1.00;;;20.60;40.60;;;;;;5052397;28;20197;-81
2023/06/11 10:22:34;;;;;;;2.88;1.40;;;20.60;40.80;;;;;;5052033;28;20185;-82
2023/06/11 10:25:01;;;;;;;1.55;1.30;;;20.70;40.80;;;;;;5054171;28;20174;-81
2023/06/11 10:27:36;;;;;;;4.55;1.15;;;20.70;40.70;;;;;;5058675;28;20312;-81
2023/06/11 10:30:08;;;;;;;1.92;1.17;;;20.60;40.80;;;;;;5057954;28;20168;-83
2023/06/11 10:32:34;;;;;;;1.83;1.20;;;20.60;40.80;;;;;;5060306;28;20214;-81
2023/06/11 10:35:03;;;;;;;1.15;1.02;;;20.50;40.80;;;;;;5045670;28;20585;-82
2023/06/11 10:37:32;;;;;;;1.10;1.00;;;20.60;40.80;;;;;;5057872;28;20181;-81
2023/06/11 10:40:01;;;;;;;1.35;0.93;;;20.50;40.80;;;;;;5040065;28;20565;-81
2023/06/11 10:42:38;;;;;;;1.38;1.17;;;20.50;40.80;;;;;;5044964;28;20215;-81
2023/06/11 10:45:12;;;;;;;2.13;1.10;;;20.50;40.80;;;;;;5062949;28;20221;-81
2023/06/11 10:47:43;;;;;;;1.73;1.20;;;20.50;40.70;;;;;;5039654;28;20220;-81
2023/06/11 10:50:13;;;;;;;1.70;1.05;;;20.50;40.70;;;;;;5025460;28;20202;-82
2023/06/11 10:52:55;;;;;;;1.33;1.00;;;20.60;40.30;;;;;;5056745;28;20245;-81
2023/06/11 10:55:26;;;;;;;1.48;1.17;;;20.60;40.50;;;;;;5057305;28;20174;-81
2023/06/11 10:57:52;;;;;;;1.48;1.20;;;20.70;40.50;;;;;;5056750;28;20212;-80
2023/06/11 11:00:20;;;;;;;1.30;1.00;;;20.70;40.50;;;;;;5043247;28;20162;-81
2023/06/11 11:02:46;;;;;;;1.05;1.00;;;20.60;40.50;;;;;;5060768;28;20160;-80
2023/06/11 11:05:14;;;;;;;1.05;0.98;;;20.60;40.50;;;;;;5064728;28;20186;-82
2023/06/11 11:07:44;;;;;;;1.20;1.10;;;20.60;40.40;;;;;;5063581;28;20194;-83
2023/06/11 11:10:11;;;;;;;1.30;1.20;;;20.60;40.30;;;;;;5056464;28;20146;-84
2023/06/11 11:12:48;;;;;;;1.30;1.20;;;20.70;40.30;;;;;;5020892;28;20197;-81
2023/06/11 11:16:02;;;;;;;;;;;;;;;;;;;;;
2023/06/11 11:18:31;;;;;;;1.48;1.02;;;20.70;40.20;;;;;;4990603;28;20277;-82
2023/06/11 11:21:17;;;;;;;1.83;1.05;;;20.70;40.30;;;;;;4981925;28;20740;-82
2023/06/11 11:23:49;;;;;;;1.52;1.30;;;20.60;40.30;;;;;;4980700;28;20274;-82
2023/06/11 11:26:17;;;;;;;2.85;1.13;;;20.60;40.40;;;;;;4980350;28;20215;-81
2023/06/11 11:28:43;;;;;;;1.50;1.17;;;20.70;40.30;;;;;;5013123;28;20186;-81
2023/06/11 11:31:08;;;;;;;1.42;1.20;;;20.60;40.20;;;;;;5012787;28;20270;-82
2023/06/11 11:33:35;;;;;;;2.17;0.98;;;20.60;40.40;;;;;;4980738;28;20287;-81
2023/06/11 11:36:02;;;;;;;4.05;1.52;;;20.60;40.60;;;;;;4981083;28;20186;-82
2023/06/11 11:38:32;;;;;;;1.52;1.17;;;20.60;40.50;;;;;;4999012;28;20677;-81
2023/06/11 11:40:57;;;;;;;1.48;1.20;;;20.60;40.60;;;;;;5015684;28;20229;-79
2023/06/11 11:43:46;;;;;;;;;;;;;;;;;;;;;
2023/06/11 11:46:16;;;;;;;1.33;1.08;;;20.60;40.30;;;;;;4939733;28;20256;-81
2023/06/11 11:48:42;;;;;;;1.42;1.00;;;20.70;40.50;;;;;;4955714;28;20311;-81
2023/06/11 11:51:11;;;;;;;1.73;1.10;;;20.60;40.30;;;;;;4944172;28;20207;-81
2023/06/11 11:53:37;;;;;;;1.40;1.20;;;20.50;40.30;;;;;;4959502;28;20156;-81
2023/06/11 11:56:05;;;;;;;1.15;1.05;;;20.60;40.50;;;;;;4996074;28;20261;-81
2023/06/11 11:58:40;;;;;;;3.10;1.00;;;20.60;40.40;;;;;;4980831;28;20175;-79
2023/06/11 12:01:09;;;;;;;3.17;1.35;;;20.60;40.40;;;;;;4980026;28;20185;-81
2023/06/11 12:03:36;;;;;;;1.88;1.27;;;20.60;40.30;;;;;;5012120;28;20501;-82
2023/06/11 12:06:04;;;;;;;1.45;1.13;;;20.70;40.50;;;;;;5013200;28;20215;-81
2023/06/11 12:08:30;;;;;;;1.33;1.00;;;20.70;40.30;;;;;;5013707;28;20152;-81
2023/06/11 12:10:56;;;;;;;2.28;1.10;;;20.70;40.20;;;;;;4995869;28;20241;-83
2023/06/11 12:13:22;;;;;;;2.35;1.33;;;20.70;40.20;;;;;;4978456;28;20159;-81
2023/06/11 12:15:48;;;;;;;1.73;1.20;;;20.70;40.20;;;;;;5008933;28;20183;-81
2023/06/11 12:18:14;;;;;;;1.20;1.10;;;20.60;39.80;;;;;;5044445;28;20221;-83
2023/06/11 12:20:40;;;;;;;1.77;1.20;;;20.60;39.60;;;;;;5034785;28;20165;-81
2023/06/11 12:23:06;;;;;;;1.90;1.08;;;20.70;39.10;;;;;;5020648;28;20159;-80
2023/06/11 12:25:39;;;;;;;1.65;1.00;;;20.70;38.70;;;;;;5041670;28;20209;-85
2023/06/11 12:28:11;;;;;;;2.90;1.27;;;20.70;39.10;;;;;;5040874;28;20205;-79
2023/06/11 12:30:43;;;;;;;1.77;1.40;;;20.60;38.90;;;;;;5050470;28;20181;-79
2023/06/11 12:33:09;;;;;;;1.52;1.40;;;20.70;38.70;;;;;;5043297;28;20159;-79
2023/06/11 12:35:38;;;;;;;2.28;1.20;;;20.70;38.70;;;;;;5041169;28;20162;-80
2023/06/11 12:38:03;;;;;;;1.33;1.20;;;20.70;38.40;;;;;;5040861;28;20196;-79
2023/06/11 12:40:30;;;;;;;2.53;1.23;;;20.70;38.40;;;;;;5057259;28;20172;-80
2023/06/11 12:43:00;;;;;;;1.75;1.48;;;20.80;38.30;;;;;;5043789;28;20177;-82
2023/06/11 12:45:26;;;;;;;2.30;1.20;;;20.80;38.20;;;;;;5043035;28;20214;-81
2023/06/11 12:47:53;;;;;;;1.58;1.38;;;20.70;38.20;;;;;;5061915;28;20197;-82